Time;durP1;ratioP1;P1;durP2;ratioP2;P2;SDS_P1;SDS_P2;PMS_P1;PMS_P2;Temp;Humidity;BMP_temperature;BMP_pressure;BME280_temperature;BME280_humidity;BME280_pressure;Samples;Min_cycle;Max_cycle;Signal;HPM_P1;HPM_P2
2023/09/25 00:00:49;;;;;;;12.40;3.05;;;;;;;;;;6086927;23;20023;-59
2023/09/25 00:03:43;;;;;;;13.40;3.10;;;;;;;;;;6088580;23;20097;-58
2023/09/25 00:06:30;;;;;;;9.75;2.60;;;;;;;;;;6082069;23;20026;-58
2023/09/25 00:09:27;;;;;;;12.27;2.67;;;;;;;;;;6078909;23;20838;-58
2023/09/25 00:12:11;;;;;;;15.30;3.05;;;;;;;;;;6085241;23;20081;-58
2023/09/25 00:15:05;;;;;;;16.00;2.90;;;;;;;;;;6087974;23;20029;-44
2023/09/25 00:17:59;;;;;;;10.15;2.58;;;;;;;;;;6087288;23;20053;-66
2023/09/25 00:20:53;;;;;;;11.30;3.03;;;;;;;;;;6087497;23;20476;-66
2023/09/25 00:23:41;;;;;;;14.60;3.60;;;;;;;;;;6087979;23;20026;-65
2023/09/25 00:26:41;;;;;;;17.60;2.80;;;;;;;;;;6085119;23;20041;-66
2023/09/25 00:29:28;;;;;;;13.02;2.63;;;;;;;;;;6087070;23;20034;-66
2023/09/25 00:32:22;;;;;;;5.70;1.95;;;;;;;;;;6084829;23;20026;-58
2023/09/25 00:35:10;;;;;;;9.32;2.83;;;;;;;;;;6087948;23;20124;-49
2023/09/25 00:38:04;;;;;;;12.75;3.22;;;;;;;;;;6084442;23;20366;-51
2023/09/25 00:40:50;;;;;;;9.52;2.40;;;;;;;;;;6085719;23;20023;-49
2023/09/25 00:43:45;;;;;;;22.65;3.42;;;;;;;;;;6087836;23;20030;-47
2023/09/25 00:46:32;;;;;;;16.25;2.70;;;;;;;;;;6086749;23;20029;-47
2023/09/25 00:49:27;;;;;;;13.15;2.75;;;;;;;;;;6087985;23;20097;-58
2023/09/25 00:52:15;;;;;;;12.27;2.70;;;;;;;;;;6088553;23;20469;-60
2023/09/25 00:55:09;;;;;;;11.15;2.80;;;;;;;;;;6088396;23;20030;-60
2023/09/25 00:57:56;;;;;;;8.52;2.38;;;;;;;;;;6086464;23;20033;-60
2023/09/25 01:00:50;;;;;;;11.35;3.03;;;;;;;;;;6085529;23;20074;-60
2023/09/25 01:03:38;;;;;;;10.00;2.60;;;;;;;;;;6086938;23;20066;-59
2023/09/25 01:06:31;;;;;;;11.15;2.78;;;;;;;;;;6086097;23;20294;-60
2023/09/25 01:09:18;;;;;;;10.02;3.28;;;;;;;;;;6086472;23;20022;-66
2023/09/25 01:12:13;;;;;;;11.10;2.58;;;;;;;;;;6085430;23;20077;-57
2023/09/25 01:15:00;;;;;;;11.93;3.10;;;;;;;;;;6087166;23;20069;-59
2023/09/25 01:17:53;;;;;;;10.88;3.13;;;;;;;;;;6085915;23;20057;-58
2023/09/25 01:20:40;;;;;;;11.85;2.85;;;;;;;;;;6087503;23;20057;-58
2023/09/25 01:23:34;;;;;;;8.23;2.88;;;;;;;;;;6087860;23;20046;-59
2023/09/25 01:26:28;;;;;;;13.93;3.15;;;;;;;;;;6079886;23;20429;-60
2023/09/25 01:29:22;;;;;;;10.98;2.72;;;;;;;;;;6087087;23;20089;-51
2023/09/25 01:32:09;;;;;;;15.00;3.15;;;;;;;;;;6086809;23;20038;-48
2023/09/25 01:35:03;;;;;;;6.78;2.25;;;;;;;;;;6086610;23;20032;-53
2023/09/25 01:37:50;;;;;;;9.93;2.53;;;;;;;;;;6088551;23;20682;-50
2023/09/25 01:40:43;;;;;;;14.68;2.90;;;;;;;;;;6087215;23;20022;-49
2023/09/25 01:43:30;;;;;;;5.47;2.15;;;;;;;;;;6087136;23;20110;-51
2023/09/25 01:46:24;;;;;;;12.85;2.90;;;;;;;;;;6086749;23;20085;-59
2023/09/25 01:49:12;;;;;;;11.27;3.13;;;;;;;;;;6086957;23;20030;-52
2023/09/25 01:52:07;;;;;;;15.88;3.28;;;;;;;;;;6086612;23;20129;-53
2023/09/25 01:54:53;;;;;;;7.88;2.70;;;;;;;;;;6085544;23;20027;-51
2023/09/25 01:57:46;;;;;;;13.45;2.88;;;;;;;;;;6085903;23;20033;-51
2023/09/25 02:00:41;;;;;;;13.50;3.10;;;;;;;;;;6086133;23;20030;-49
2023/09/25 02:03:27;;;;;;;9.55;3.42;;;;;;;;;;6089192;23;20090;-60
2023/09/25 02:06:22;;;;;;;10.05;2.75;;;;;;;;;;6088240;23;20726;-59
2023/09/25 02:09:10;;;;;;;11.13;3.40;;;;;;;;;;6087223;23;20623;-60
2023/09/25 02:12:03;;;;;;;14.43;3.22;;;;;;;;;;6088018;23;20026;-60
2023/09/25 02:14:59;;;;;;;10.40;2.95;;;;;;;;;;6087661;23;20036;-59
2023/09/25 02:17:52;;;;;;;17.17;3.05;;;;;;;;;;6085994;23;20406;-48
2023/09/25 02:20:47;;;;;;;8.45;3.03;;;;;;;;;;6087985;23;20074;-52
2023/09/25 02:23:41;;;;;;;18.65;3.47;;;;;;;;;;6087095;23;20022;-52
2023/09/25 02:26:34;;;;;;;11.55;3.20;;;;;;;;;;6084486;23;20023;-52
2023/09/25 02:29:28;;;;;;;18.77;3.35;;;;;;;;;;6087123;23;20085;-46
2023/09/25 02:32:22;;;;;;;11.75;3.40;;;;;;;;;;6087792;23;20030;-58
2023/09/25 02:35:17;;;;;;;7.35;3.22;;;;;;;;;;6088681;23;20065;-58
2023/09/25 02:38:05;;;;;;;7.00;2.80;;;;;;;;;;6080789;23;20527;-58
2023/09/25 02:40:57;;;;;;;9.40;3.50;;;;;;;;;;6077213;23;20583;-60
2023/09/25 02:43:45;;;;;;;6.95;2.83;;;;;;;;;;6087395;23;20026;-59
2023/09/25 02:46:38;;;;;;;11.45;2.72;;;;;;;;;;6088367;23;20086;-59
2023/09/25 02:49:26;;;;;;;8.55;3.00;;;;;;;;;;6088902;23;20019;-59
2023/09/25 02:52:19;;;;;;;11.05;2.80;;;;;;;;;;6088092;23;20030;-60
2023/09/25 02:55:13;;;;;;;6.85;2.53;;;;;;;;;;6087491;23;20026;-59
2023/09/25 02:58:06;;;;;;;9.05;3.17;;;;;;;;;;6089287;23;20517;-59
2023/09/25 03:00:53;;;;;;;9.48;2.80;;;;;;;;;;6088894;23;20022;-62
2023/09/25 03:03:54;;;;;;;10.80;3.30;;;;;;;;;;6089301;23;20544;-67
2023/09/25 03:06:41;;;;;;;13.25;3.30;;;;;;;;;;6087605;23;20023;-67
2023/09/25 03:09:35;;;;;;;7.65;2.90;;;;;;;;;;6084516;23;20030;-67
2023/09/25 03:12:23;;;;;;;13.88;3.35;;;;;;;;;;6090429;23;20030;-67
2023/09/25 03:15:17;;;;;;;10.50;3.22;;;;;;;;;;6087291;23;20895;-67
2023/09/25 03:18:04;;;;;;;11.80;3.25;;;;;;;;;;6087817;23;20026;-60
2023/09/25 03:21:07;;;;;;;8.15;3.40;;;;;;;;;;6088170;23;20026;-58
2023/09/25 03:23:54;;;;;;;8.32;3.47;;;;;;;;;;6088002;23;20113;-58
2023/09/25 03:26:56;;;;;;;7.82;3.35;;;;;;;;;;6087209;23;20465;-58
2023/09/25 03:29:57;;;;;;;9.23;3.05;;;;;;;;;;6086791;23;20026;-58
2023/09/25 03:32:45;;;;;;;6.88;3.33;;;;;;;;;;6090059;23;20030;-58
2023/09/25 03:35:39;;;;;;;11.05;3.20;;;;;;;;;;6087794;23;20030;-58
2023/09/25 03:38:26;;;;;;;10.13;3.67;;;;;;;;;;6086943;23;20398;-58
2023/09/25 03:41:19;;;;;;;10.60;3.35;;;;;;;;;;6087575;23;20026;-59
2023/09/25 03:44:07;;;;;;;14.82;3.53;;;;;;;;;;6089169;23;20465;-59
2023/09/25 03:47:00;;;;;;;14.95;3.50;;;;;;;;;;6089260;23;20098;-58
2023/09/25 03:49:54;;;;;;;14.00;3.55;;;;;;;;;;6088676;23;20030;-59
2023/09/25 03:52:48;;;;;;;14.63;3.70;;;;;;;;;;6088293;23;20081;-59
2023/09/25 03:55:36;;;;;;;12.13;3.63;;;;;;;;;;6087139;23;20062;-58
2023/09/25 03:58:29;;;;;;;14.90;4.13;;;;;;;;;;6088053;23;20089;-58
2023/09/25 04:01:17;;;;;;;18.52;3.92;;;;;;;;;;6080935;23;20027;-59
2023/09/25 04:04:11;;;;;;;11.93;3.92;;;;;;;;;;6086951;23;20023;-55
2023/09/25 04:07:05;;;;;;;14.57;3.92;;;;;;;;;;6088147;23;20101;-57
2023/09/25 04:10:02;;;;;;;14.32;3.78;;;;;;;;;;6088189;23;20030;-59
2023/09/25 04:12:47;;;;;;;15.60;4.28;;;;;;;;;;6089103;23;20086;-67
2023/09/25 04:15:40;;;;;;;8.63;4.25;;;;;;;;;;6088701;23;20027;-59
2023/09/25 04:18:27;;;;;;;15.05;3.85;;;;;;;;;;6080650;23;20073;-57
2023/09/25 04:21:21;;;;;;;11.23;3.58;;;;;;;;;;6086284;23;20105;-59
2023/09/25 04:24:15;;;;;;;9.57;3.55;;;;;;;;;;6082047;23;20045;-59
2023/09/25 04:27:24;;;;;;;15.45;4.43;;;;;;;;;;6086290;23;20500;-58
2023/09/25 04:30:17;;;;;;;10.30;4.32;;;;;;;;;;6085335;23;20477;-59
2023/09/25 04:33:10;;;;;;;14.68;4.28;;;;;;;;;;6086262;23;20413;-57
2023/09/25 04:35:58;;;;;;;10.80;4.10;;;;;;;;;;6086014;23;20031;-66
2023/09/25 04:38:52;;;;;;;15.05;4.20;;;;;;;;;;6074311;23;20022;-67
2023/09/25 04:41:39;;;;;;;14.60;4.72;;;;;;;;;;6087029;23;20056;-66
2023/09/25 04:44:33;;;;;;;22.42;4.90;;;;;;;;;;6087229;23;20033;-66
2023/09/25 04:47:19;;;;;;;19.15;4.78;;;;;;;;;;6088362;23;20480;-67
2023/09/25 04:50:14;;;;;;;10.85;4.30;;;;;;;;;;6088488;23;20086;-60
2023/09/25 04:53:01;;;;;;;21.27;4.85;;;;;;;;;;6088199;23;20089;-48
2023/09/25 04:55:54;;;;;;;14.00;4.82;;;;;;;;;;6086111;23;20643;-47
2023/09/25 04:58:42;;;;;;;11.32;4.70;;;;;;;;;;6087801;23;20022;-47
2023/09/25 05:01:35;;;;;;;14.25;4.55;;;;;;;;;;6087628;23;20026;-49
2023/09/25 05:04:23;;;;;;;19.50;5.30;;;;;;;;;;6086284;23;20536;-46
2023/09/25 05:06:57;;;;;;;16.33;5.40;;;;;;;;;;6079196;23;20061;-48
2023/09/25 05:09:44;;;;;;;9.73;4.43;;;;;;;;;;6085650;23;20042;-56
2023/09/25 05:12:39;;;;;;;18.77;5.28;;;;;;;;;;6085409;23;20085;-58
2023/09/25 05:15:26;;;;;;;11.13;4.50;;;;;;;;;;6081801;23;20133;-55
2023/09/25 05:18:20;;;;;;;13.73;5.10;;;;;;;;;;6078124;23;20663;-59
2023/09/25 05:21:14;;;;;;;12.35;5.00;;;;;;;;;;6082152;23;20460;-58
2023/09/25 05:24:01;;;;;;;16.20;5.30;;;;;;;;;;6088377;23;20402;-59
2023/09/25 05:27:02;;;;;;;17.02;5.13;;;;;;;;;;6084449;23;20026;-59
2023/09/25 05:29:57;;;;;;;12.93;4.78;;;;;;;;;;6088152;23;20026;-59
2023/09/25 05:32:44;;;;;;;16.77;5.00;;;;;;;;;;6086482;23;20026;-60
2023/09/25 05:35:39;;;;;;;9.40;4.22;;;;;;;;;;6085792;23;20026;-60
2023/09/25 05:38:26;;;;;;;13.00;4.07;;;;;;;;;;6088153;23;20409;-60
2023/09/25 05:41:20;;;;;;;20.08;5.30;;;;;;;;;;6087329;23;20033;-60
2023/09/25 05:44:08;;;;;;;11.70;4.60;;;;;;;;;;6086506;23;20053;-61
2023/09/25 05:47:00;;;;;;;15.40;4.20;;;;;;;;;;6087686;23;20033;-46
2023/09/25 05:49:48;;;;;;;16.20;4.95;;;;;;;;;;6081975;23;20030;-51
2023/09/25 05:52:41;;;;;;;9.43;3.95;;;;;;;;;;6088651;23;20022;-48
2023/09/25 05:55:29;;;;;;;13.90;4.63;;;;;;;;;;6087156;23;20061;-58
2023/09/25 05:58:22;;;;;;;18.00;4.10;;;;;;;;;;6087682;23;20098;-51
2023/09/25 06:00:50;;;;;;;14.60;4.43;;;;;;;;;;6088213;23;20031;-47
2023/09/25 06:03:17;;;;;;;11.90;4.05;;;;;;;;;;6087226;23;20026;-51
2023/09/25 06:06:11;;;;;;;12.13;3.97;;;;;;;;;;6087609;23;20037;-46
2023/09/25 06:09:08;;;;;;;17.92;4.50;;;;;;;;;;6087855;23;20025;-47
2023/09/25 06:11:59;;;;;;;7.82;3.20;;;;;;;;;;6086630;23;20029;-51
2023/09/25 06:14:46;;;;;;;13.73;3.70;;;;;;;;;;6086483;23;20037;-59
2023/09/25 06:17:40;;;;;;;10.63;3.63;;;;;;;;;;6087391;23;20030;-58
2023/09/25 06:20:28;;;;;;;13.75;4.15;;;;;;;;;;6087326;23;20018;-57
2023/09/25 06:23:21;;;;;;;11.68;3.20;;;;;;;;;;6089150;23;20351;-59
2023/09/25 06:26:23;;;;;;;11.45;3.70;;;;;;;;;;6088249;23;20094;-58
2023/09/25 06:29:24;;;;;;;13.73;4.15;;;;;;;;;;6088207;23;20018;-58
2023/09/25 06:32:11;;;;;;;8.40;3.33;;;;;;;;;;6089783;23;20031;-60
2023/09/25 06:35:08;;;;;;;14.35;4.20;;;;;;;;;;6088943;23;20027;-66
2023/09/25 06:38:01;;;;;;;11.05;3.40;;;;;;;;;;6088905;23;20023;-66
2023/09/25 06:40:55;;;;;;;10.73;3.50;;;;;;;;;;6089444;23;20038;-66
2023/09/25 06:43:49;;;;;;;11.57;3.78;;;;;;;;;;6089238;23;20031;-67
2023/09/25 06:46:44;;;;;;;11.80;3.47;;;;;;;;;;6090389;23;20393;-66
2023/09/25 06:49:37;;;;;;;8.32;3.35;;;;;;;;;;6086613;23;20026;-66
2023/09/25 06:52:31;;;;;;;9.82;3.30;;;;;;;;;;6090097;23;20034;-50
2023/09/25 06:55:19;;;;;;;10.55;3.17;;;;;;;;;;6088174;23;20022;-47
2023/09/25 06:58:13;;;;;;;9.20;3.80;;;;;;;;;;6088453;23;20069;-48
2023/09/25 07:01:00;;;;;;;11.48;3.30;;;;;;;;;;6088824;23;20029;-50
2023/09/25 07:03:54;;;;;;;9.23;3.33;;;;;;;;;;6090812;23;20097;-47
2023/09/25 07:06:49;;;;;;;12.05;3.42;;;;;;;;;;6089442;23;20121;-49
2023/09/25 07:09:42;;;;;;;13.98;3.47;;;;;;;;;;6090096;23;20026;-61
2023/09/25 07:12:36;;;;;;;14.10;3.30;;;;;;;;;;6089067;23;20560;-59
2023/09/25 07:15:23;;;;;;;9.75;3.58;;;;;;;;;;6088071;23;20022;-60
2023/09/25 07:18:20;;;;;;;9.65;3.33;;;;;;;;;;6090144;23;20023;-67
2023/09/25 07:21:07;;;;;;;11.88;3.30;;;;;;;;;;6089661;23;20030;-59
2023/09/25 07:24:00;;;;;;;17.08;3.50;;;;;;;;;;6089751;23;20022;-60
2023/09/25 07:26:54;;;;;;;11.40;3.63;;;;;;;;;;6087220;23;20105;-60
2023/09/25 07:29:48;;;;;;;13.88;3.55;;;;;;;;;;6088995;23;20038;-60
2023/09/25 07:32:37;;;;;;;14.85;3.40;;;;;;;;;;6089692;23;20018;-60
2023/09/25 07:35:30;;;;;;;9.93;3.33;;;;;;;;;;6086954;23;20030;-60
2023/09/25 07:38:17;;;;;;;10.95;3.63;;;;;;;;;;6088803;23;20093;-58
2023/09/25 07:41:12;;;;;;;13.27;3.70;;;;;;;;;;6089549;23;20027;-58
2023/09/25 07:43:59;;;;;;;12.02;3.17;;;;;;;;;;6088300;23;20026;-58
2023/09/25 07:46:51;;;;;;;8.52;2.70;;;;;;;;;;6080392;23;20404;-60
2023/09/25 07:49:44;;;;;;;10.18;3.33;;;;;;;;;;6086229;23;20085;-49
2023/09/25 07:52:36;;;;;;;10.25;3.08;;;;;;;;;;6088013;23;20023;-49
2023/09/25 07:55:23;;;;;;;8.27;3.28;;;;;;;;;;6086695;23;20026;-47
2023/09/25 07:58:16;;;;;;;8.38;3.17;;;;;;;;;;6087986;23;20603;-51
2023/09/25 08:01:07;;;;;;;11.35;2.90;;;;;;;;;;6087574;23;20030;-49
2023/09/25 08:03:59;;;;;;;9.15;3.40;;;;;;;;;;6085630;23;20026;-55
2023/09/25 08:06:46;;;;;;;10.98;3.72;;;;;;;;;;6088308;23;20022;-51
2023/09/25 08:09:40;;;;;;;12.98;3.72;;;;;;;;;;6088610;23;20031;-59
2023/09/25 08:12:27;;;;;;;10.07;3.10;;;;;;;;;;6087701;23;20033;-59
2023/09/25 08:15:23;;;;;;;15.23;3.47;;;;;;;;;;6079940;23;20029;-58
2023/09/25 08:18:09;;;;;;;13.02;3.58;;;;;;;;;;6087920;23;20074;-58
2023/09/25 08:21:04;;;;;;;11.73;3.47;;;;;;;;;;6088894;23;20023;-58
2023/09/25 08:23:50;;;;;;;15.65;3.20;;;;;;;;;;6087691;23;20030;-57
2023/09/25 08:26:57;;;;;;;15.25;3.55;;;;;;;;;;6084784;23;20085;-57
2023/09/25 08:29:52;;;;;;;17.10;3.13;;;;;;;;;;6088146;23;20026;-58
2023/09/25 08:32:46;;;;;;;14.32;3.10;;;;;;;;;;6086318;23;20032;-56
2023/09/25 08:35:33;;;;;;;15.30;3.30;;;;;;;;;;6088956;23;20096;-58
2023/09/25 08:38:26;;;;;;;10.05;2.90;;;;;;;;;;6087865;23;20372;-58
2023/09/25 08:41:14;;;;;;;16.38;3.10;;;;;;;;;;6087375;23;20027;-57
2023/09/25 08:44:10;;;;;;;15.57;3.30;;;;;;;;;;6085804;23;20022;-51
2023/09/25 08:46:56;;;;;;;9.68;3.08;;;;;;;;;;6088599;23;20030;-48
2023/09/25 08:49:51;;;;;;;9.45;2.85;;;;;;;;;;6088838;23;20035;-55
2023/09/25 08:52:46;;;;;;;10.60;3.38;;;;;;;;;;6089132;23;20026;-65
2023/09/25 08:55:39;;;;;;;13.52;2.97;;;;;;;;;;6084512;23;20022;-60
2023/09/25 08:58:26;;;;;;;11.55;3.70;;;;;;;;;;6088834;23;20528;-59
2023/09/25 09:01:20;;;;;;;8.32;3.13;;;;;;;;;;6088847;23;20026;-60
2023/09/25 09:04:13;;;;;;;13.25;3.80;;;;;;;;;;6088530;23;20025;-60
2023/09/25 14:16:57;;;;;;;6.82;2.38;;;;;;;;;;6079021;23;20564;-59
2023/09/25 14:19:32;;;;;;;6.13;2.10;;;;;;;;;;6084363;23;20022;-58
2023/09/25 14:21:59;;;;;;;6.70;2.80;;;;;;;;;;6083657;23;20088;-59
2023/09/25 14:24:27;;;;;;;;;;;;;;;;;;6084360;23;20037;-47
2023/09/25 14:27:17;;;;;;;9.23;2.50;;;;;;;;;;6084013;23;19996;-60
2023/09/25 14:30:15;;;;;;;6.20;2.30;;;;;;;;;;6085468;23;20106;-60
2023/09/25 14:33:03;;;;;;;4.38;2.33;;;;;;;;;;6084946;23;20022;-60
2023/09/25 14:35:57;;;;;;;6.32;2.30;;;;;;;;;;6085062;23;20037;-60
2023/09/25 14:38:44;;;;;;;5.47;2.08;;;;;;;;;;6083854;23;20026;-60
2023/09/25 14:41:38;;;;;;;4.97;2.00;;;;;;;;;;6084172;23;20023;-59
2023/09/25 14:44:25;;;;;;;6.30;2.30;;;;;;;;;;6087243;23;20030;-60
2023/09/25 14:47:20;;;;;;;9.63;2.13;;;;;;;;;;6086841;23;20022;-64
2023/09/25 14:50:07;;;;;;;6.38;2.30;;;;;;;;;;6089447;23;20130;-65
2023/09/25 14:53:03;;;;;;;6.57;2.10;;;;;;;;;;6089951;23;20543;-65
2023/09/25 14:55:48;;;;;;;9.00;2.20;;;;;;;;;;6087729;23;20520;-64
2023/09/25 14:58:42;;;;;;;11.63;2.42;;;;;;;;;;6089495;23;20026;-64
2023/09/25 15:01:29;;;;;;;5.82;2.53;;;;;;;;;;6090036;23;20070;-48
2023/09/25 15:04:23;;;;;;;5.25;2.17;;;;;;;;;;6087853;23;20105;-53
2023/09/25 15:07:17;;;;;;;6.80;2.30;;;;;;;;;;6087365;23;20121;-51
2023/09/25 15:10:04;;;;;;;9.18;2.15;;;;;;;;;;6088060;23;20030;-52
2023/09/25 15:12:58;;;;;;;6.43;2.38;;;;;;;;;;6089496;23;20026;-51
2023/09/25 15:15:45;;;;;;;5.32;2.10;;;;;;;;;;6087912;23;20485;-60
2023/09/25 15:18:45;;;;;;;10.00;2.63;;;;;;;;;;6059385;23;20037;-60
2023/09/25 15:21:33;;;;;;;8.10;2.58;;;;;;;;;;6059279;23;20097;-60
2023/09/25 15:24:27;;;;;;;6.55;2.20;;;;;;;;;;6060553;23;20098;-60
2023/09/25 15:27:14;;;;;;;10.63;2.58;;;;;;;;;;6057859;23;20023;-60
2023/09/25 15:30:08;;;;;;;3.95;2.35;;;;;;;;;;6061860;23;20027;-58
2023/09/25 15:32:56;;;;;;;6.80;2.80;;;;;;;;;;6058779;23;20055;-57
2023/09/25 15:35:50;;;;;;;5.95;2.20;;;;;;;;;;6059322;23;20106;-56
2023/09/25 15:38:44;;;;;;;5.82;2.65;;;;;;;;;;6061016;23;20086;-60
2023/09/25 15:41:31;;;;;;;6.90;2.90;;;;;;;;;;6053393;23;20037;-59
2023/09/25 15:44:25;;;;;;;7.00;2.28;;;;;;;;;;6058196;23;20027;-60
2023/09/25 15:47:12;;;;;;;6.40;2.53;;;;;;;;;;6060428;23;20083;-60
2023/09/25 15:50:06;;;;;;;6.45;2.63;;;;;;;;;;6058593;23;20023;-60
2023/09/25 15:52:53;;;;;;;7.00;2.50;;;;;;;;;;6060280;23;20398;-60
2023/09/25 15:55:47;;;;;;;8.63;2.63;;;;;;;;;;6058727;23;20528;-60
2023/09/25 15:58:34;;;;;;;5.43;2.80;;;;;;;;;;6050102;23;20038;-49
2023/09/25 16:01:28;;;;;;;7.07;2.78;;;;;;;;;;6057760;23;20025;-48
2023/09/25 16:04:15;;;;;;;5.18;2.70;;;;;;;;;;6059318;23;20558;-50
2023/09/25 16:07:09;;;;;;;6.28;2.50;;;;;;;;;;6057093;23;20022;-59
2023/09/25 16:09:56;;;;;;;6.22;2.70;;;;;;;;;;6056055;23;20031;-49
2023/09/25 16:12:49;;;;;;;6.78;2.92;;;;;;;;;;6060009;23;20027;-50
2023/09/25 16:15:37;;;;;;;10.73;2.70;;;;;;;;;;6058195;23;20482;-48
2023/09/25 16:18:37;;;;;;;12.18;2.70;;;;;;;;;;6088311;23;20062;-47
2023/09/25 16:21:25;;;;;;;9.15;3.08;;;;;;;;;;6087403;23;20026;-49
2023/09/25 16:24:19;;;;;;;6.93;2.90;;;;;;;;;;6087517;23;20019;-53
2023/09/25 16:27:07;;;;;;;8.02;3.03;;;;;;;;;;6087156;23;20026;-60
2023/09/25 16:30:02;;;;;;;11.40;2.95;;;;;;;;;;6088480;23;20097;-60
2023/09/25 16:32:50;;;;;;;6.05;3.28;;;;;;;;;;6087467;23;20023;-60
2023/09/25 16:35:44;;;;;;;12.82;3.30;;;;;;;;;;6086342;23;20595;-60
2023/09/25 16:38:32;;;;;;;8.30;2.88;;;;;;;;;;6084961;23;20106;-60
2023/09/25 16:41:27;;;;;;;13.15;2.60;;;;;;;;;;6086619;23;20026;-60
2023/09/25 16:44:12;;;;;;;9.00;3.22;;;;;;;;;;6087951;23;20030;-49
2023/09/25 16:47:06;;;;;;;8.07;3.20;;;;;;;;;;6085683;23;20061;-51
2023/09/25 16:49:53;;;;;;;10.07;2.95;;;;;;;;;;6081765;23;20111;-50
2023/09/25 16:52:27;;;;;;;7.00;2.55;;;;;;;;;;6081902;23;20737;-48
2023/09/25 16:55:01;;;;;;;13.07;3.15;;;;;;;;;;6084690;23;20469;-60
2023/09/25 16:57:48;;;;;;;6.88;2.80;;;;;;;;;;6086380;23;20417;-50
2023/09/25 17:00:42;;;;;;;9.98;3.63;;;;;;;;;;6084860;23;20030;-51
2023/09/25 17:03:12;;;;;;;16.02;3.38;;;;;;;;;;6083998;23;20054;-50
2023/09/25 17:05:39;;;;;;;12.43;3.50;;;;;;;;;;6081521;23;20031;-46
2023/09/25 17:08:14;;;;;;;10.02;3.05;;;;;;;;;;6082022;23;20512;-47
2023/09/25 17:10:41;;;;;;;10.95;3.03;;;;;;;;;;6084039;23;20030;-50
2023/09/25 17:13:15;;;;;;;7.25;3.08;;;;;;;;;;6086125;23;20512;-59
2023/09/25 17:15:42;;;;;;;5.65;3.10;;;;;;;;;;6085164;23;20061;-58
2023/09/25 17:18:12;;;;;;;9.35;3.08;;;;;;;;;;6085405;23;20030;-58
2023/09/25 17:21:04;;;;;;;8.52;3.13;;;;;;;;;;6086282;23;20026;-59
2023/09/25 17:23:51;;;;;;;7.55;3.22;;;;;;;;;;6083468;23;20058;-58
2023/09/25 17:26:45;;;;;;;7.50;2.88;;;;;;;;;;6079359;23;20030;-56
2023/09/25 17:29:32;;;;;;;10.40;3.47;;;;;;;;;;6079958;23;20030;-58
2023/09/25 17:32:27;;;;;;;13.85;3.25;;;;;;;;;;6079128;23;20062;-57
2023/09/25 17:35:20;;;;;;;7.63;2.90;;;;;;;;;;6080572;23;20042;-49
2023/09/25 17:38:07;;;;;;;9.85;3.22;;;;;;;;;;6083544;23;20030;-50
2023/09/25 17:41:02;;;;;;;10.48;3.70;;;;;;;;;;6081614;23;20614;-50
2023/09/25 17:43:49;;;;;;;14.30;3.78;;;;;;;;;;6082163;23;20026;-49
2023/09/25 17:46:43;;;;;;;9.50;3.78;;;;;;;;;;6081756;23;20042;-52
2023/09/25 17:49:37;;;;;;;8.00;3.78;;;;;;;;;;6083519;23;20389;-59
2023/09/25 17:52:24;;;;;;;10.73;3.65;;;;;;;;;;6081289;23;20097;-59
2023/09/25 17:55:18;;;;;;;10.07;3.83;;;;;;;;;;6081483;23;20026;-59
2023/09/25 17:58:05;;;;;;;6.47;3.30;;;;;;;;;;6084026;23;20030;-62
2023/09/25 18:01:00;;;;;;;13.25;3.97;;;;;;;;;;6080323;23;20022;-61
2023/09/25 18:03:47;;;;;;;12.53;3.97;;;;;;;;;;6081676;23;20029;-60
2023/09/25 18:06:22;;;;;;;11.50;3.58;;;;;;;;;;6081028;23;20027;-60
2023/09/25 18:09:16;;;;;;;12.20;3.67;;;;;;;;;;6081756;23;20476;-66
2023/09/25 18:12:03;;;;;;;11.60;4.10;;;;;;;;;;6081915;23;20081;-60
2023/09/25 18:15:03;;;;;;;9.48;3.90;;;;;;;;;;6081415;23;20023;-59
2023/09/25 18:17:57;;;;;;;9.90;4.05;;;;;;;;;;6080766;23;20087;-60
2023/09/25 18:20:57;;;;;;;8.13;3.88;;;;;;;;;;6085455;23;20377;-60
2023/09/25 18:23:45;;;;;;;12.93;4.05;;;;;;;;;;6081460;23;20398;-59
2023/09/25 18:26:40;;;;;;;12.82;4.22;;;;;;;;;;6082475;23;20038;-59
2023/09/25 18:29:28;;;;;;;18.33;4.20;;;;;;;;;;6085593;23;20026;-61
2023/09/25 18:32:21;;;;;;;8.18;3.42;;;;;;;;;;6081521;23;20722;-61
2023/09/25 18:35:11;;;;;;;14.38;4.28;;;;;;;;;;6085728;23;20029;-61
2023/09/25 18:38:05;;;;;;;9.43;3.92;;;;;;;;;;6076996;23;20030;-61
2023/09/25 18:40:52;;;;;;;11.38;3.83;;;;;;;;;;6081051;23;20090;-61
2023/09/25 18:43:46;;;;;;;15.18;4.13;;;;;;;;;;6084456;23;20751;-61
2023/09/25 18:46:33;;;;;;;11.00;3.85;;;;;;;;;;6082620;23;20033;-61
2023/09/25 18:49:27;;;;;;;9.10;3.95;;;;;;;;;;6084838;23;20073;-52
2023/09/25 18:52:14;;;;;;;14.02;4.20;;;;;;;;;;6085189;23;20042;-50
2023/09/25 18:55:08;;;;;;;18.55;4.68;;;;;;;;;;6079382;23;20030;-50
2023/09/25 18:57:55;;;;;;;12.43;3.67;;;;;;;;;;6082664;23;20225;-47
2023/09/25 19:00:49;;;;;;;11.52;3.97;;;;;;;;;;6084731;23;20026;-50
2023/09/25 19:03:37;;;;;;;8.43;3.87;;;;;;;;;;6076119;23;20081;-51
2023/09/25 19:06:32;;;;;;;15.88;4.05;;;;;;;;;;6083256;23;20030;-60
2023/09/25 19:09:18;;;;;;;13.75;4.25;;;;;;;;;;6082951;23;20026;-60
2023/09/25 19:12:12;;;;;;;17.42;4.38;;;;;;;;;;6085154;23;20089;-59
2023/09/25 19:14:59;;;;;;;15.95;4.53;;;;;;;;;;6084660;23;20084;-60
2023/09/25 19:18:07;;;;;;;14.30;4.45;;;;;;;;;;6080749;23;20030;-59
2023/09/25 19:20:42;;;;;;;14.48;4.07;;;;;;;;;;6083645;23;20465;-59
2023/09/25 19:23:16;;;;;;;18.88;4.10;;;;;;;;;;6083342;23;20026;-65
2023/09/25 19:26:04;;;;;;;11.07;4.23;;;;;;;;;;6084361;23;20033;-59
2023/09/25 19:28:58;;;;;;;9.23;4.10;;;;;;;;;;6082700;23;20258;-58
2023/09/25 19:31:52;;;;;;;14.73;4.47;;;;;;;;;;6077513;23;20098;-60
2023/09/25 19:34:39;;;;;;;15.10;4.20;;;;;;;;;;6083730;23;20032;-59
2023/09/25 19:37:33;;;;;;;12.00;4.28;;;;;;;;;;6083806;23;20477;-59
2023/09/25 19:40:20;;;;;;;15.88;4.82;;;;;;;;;;6083369;23;20086;-60
2023/09/25 19:43:14;;;;;;;12.60;4.30;;;;;;;;;;6078959;23;20121;-49
2023/09/25 19:46:02;;;;;;;13.88;4.55;;;;;;;;;;6085299;23;20521;-52
2023/09/25 19:48:55;;;;;;;14.70;4.38;;;;;;;;;;6084246;23;20022;-52
2023/09/25 19:51:42;;;;;;;9.82;4.53;;;;;;;;;;6082948;23;20809;-52
2023/09/25 19:54:36;;;;;;;13.70;4.57;;;;;;;;;;6083615;23;20027;-49
2023/09/25 19:57:23;;;;;;;12.95;4.93;;;;;;;;;;6081876;23;20326;-53
2023/09/25 20:00:17;;;;;;;20.92;5.03;;;;;;;;;;6083455;23;20037;-59
2023/09/25 20:03:04;;;;;;;11.45;4.82;;;;;;;;;;6082857;23;20089;-60
2023/09/25 20:05:58;;;;;;;11.13;4.47;;;;;;;;;;6085188;23;20029;-59
2023/09/25 20:08:45;;;;;;;12.35;4.40;;;;;;;;;;6061387;23;20133;-60
2023/09/25 20:11:39;;;;;;;12.43;4.32;;;;;;;;;;6083382;23;20030;-59
2023/09/25 20:14:26;;;;;;;12.38;5.30;;;;;;;;;;6079853;23;20026;-59
2023/09/25 20:17:33;;;;;;;16.83;4.80;;;;;;;;;;6083285;23;20026;-51
2023/09/25 20:20:27;;;;;;;16.08;4.80;;;;;;;;;;6083799;23;20058;-59
2023/09/25 20:23:21;;;;;;;12.38;4.80;;;;;;;;;;6080951;23;20028;-60
2023/09/25 20:26:10;;;;;;;17.02;5.45;;;;;;;;;;6083855;23;20595;-59
2023/09/25 20:29:03;;;;;;;14.40;5.22;;;;;;;;;;6083492;23;20030;-60
2023/09/25 20:31:50;;;;;;;14.10;4.90;;;;;;;;;;6082026;23;20085;-60
2023/09/25 20:34:44;;;;;;;14.60;5.13;;;;;;;;;;6083653;23;20089;-59
2023/09/25 20:37:31;;;;;;;14.88;5.25;;;;;;;;;;6083690;23;20085;-59
2023/09/25 20:40:25;;;;;;;14.50;4.88;;;;;;;;;;6084100;23;20074;-59
2023/09/25 20:43:12;;;;;;;12.32;4.65;;;;;;;;;;6084440;23;20030;-59
2023/09/25 20:46:06;;;;;;;16.33;5.45;;;;;;;;;;6082604;23;20022;-59
2023/09/25 20:48:53;;;;;;;11.90;4.93;;;;;;;;;;6083301;23;20022;-58
2023/09/25 20:51:47;;;;;;;14.30;4.55;;;;;;;;;;6084264;23;20050;-59
2023/09/25 20:54:34;;;;;;;12.27;5.25;;;;;;;;;;6079310;23;20026;-50
2023/09/25 20:57:28;;;;;;;15.27;5.47;;;;;;;;;;6084300;23;20085;-60
2023/09/25 21:00:15;;;;;;;13.27;4.50;;;;;;;;;;6083312;23;20026;-60
2023/09/25 21:03:09;;;;;;;13.98;4.88;;;;;;;;;;6084204;23;20131;-60
2023/09/25 21:05:57;;;;;;;18.55;5.22;;;;;;;;;;6083920;23;20022;-60
2023/09/25 21:08:51;;;;;;;15.07;4.70;;;;;;;;;;6081714;23;20552;-60
2023/09/25 21:11:38;;;;;;;17.33;5.78;;;;;;;;;;6082726;23;20034;-59
2023/09/25 21:14:32;;;;;;;15.63;5.15;;;;;;;;;;6080800;23;20022;-60
2023/09/25 21:17:25;;;;;;;12.45;5.25;;;;;;;;;;6081566;23;20109;-61
2023/09/25 21:20:26;;;;;;;12.02;5.35;;;;;;;;;;6082873;23;20026;-60
2023/09/25 21:23:20;;;;;;;13.70;5.53;;;;;;;;;;6082039;23;20027;-60
2023/09/25 21:26:08;;;;;;;15.38;5.68;;;;;;;;;;6084391;23;20026;-60
2023/09/25 21:29:01;;;;;;;18.13;6.57;;;;;;;;;;6084057;23;20121;-59
2023/09/25 21:31:48;;;;;;;14.60;6.63;;;;;;;;;;6079406;23;20030;-60
2023/09/25 21:34:42;;;;;;;16.67;7.30;;;;;;;;;;6082347;23;20022;-61
2023/09/25 21:37:29;;;;;;;18.95;7.35;;;;;;;;;;6082377;23;20033;-62
2023/09/25 21:40:23;;;;;;;18.20;8.00;;;;;;;;;;6083559;23;20157;-62
2023/09/25 21:43:17;;;;;;;17.85;7.50;;;;;;;;;;6084805;23;20027;-62
2023/09/25 21:46:04;;;;;;;19.52;7.63;;;;;;;;;;6081989;23;20026;-61
2023/09/25 21:48:58;;;;;;;17.08;7.30;;;;;;;;;;6087027;23;20073;-60
2023/09/25 21:51:45;;;;;;;15.15;8.15;;;;;;;;;;6084213;23;20027;-49
2023/09/25 21:54:39;;;;;;;15.48;8.05;;;;;;;;;;6084183;23;20179;-47
2023/09/25 21:57:33;;;;;;;14.88;7.47;;;;;;;;;;6086361;23;20022;-50
2023/09/25 22:00:27;;;;;;;18.90;7.82;;;;;;;;;;6087268;23;20536;-47